sensor_id;sensor_type;location;lat;lon;timestamp;P1;durP1;ratioP1;P2;durP2;ratioP2
37051;SDS011;22964;52.272;13.356;2023-04-01T00:00:18;3.88;;;1.25;;
37051;SDS011;22964;52.272;13.356;2023-04-01T00:02:45;3.80;;;1.05;;
37051;SDS011;22964;52.272;13.356;2023-04-01T00:05:11;2.03;;;1.10;;
37051;SDS011;22964;52.272;13.356;2023-04-01T00:07:37;2.10;;;1.00;;
37051;SDS011;22964;52.272;13.356;2023-04-01T00:10:08;1.73;;;1.10;;
37051;SDS011;22964;52.272;13.356;2023-04-01T00:12:36;2.50;;;1.10;;
37051;SDS011;22964;52.272;13.356;2023-04-01T00:15:03;2.38;;;1.00;;
37051;SDS011;22964;52.272;13.356;2023-04-01T00:17:30;3.17;;;1.13;;
37051;SDS011;22964;52.272;13.356;2023-04-01T00:19:57;2.22;;;1.00;;
37051;SDS011;22964;52.272;13.356;2023-04-01T00:22:24;2.92;;;1.10;;
37051;SDS011;22964;52.272;13.356;2023-04-01T00:24:50;2.13;;;1.00;;
37051;SDS011;22964;52.272;13.356;2023-04-01T00:27:15;2.65;;;1.30;;
37051;SDS011;22964;52.272;13.356;2023-04-01T00:29:45;3.08;;;1.10;;
37051;SDS011;22964;52.272;13.356;2023-04-01T00:32:11;2.53;;;1.20;;
37051;SDS011;22964;52.272;13.356;2023-04-01T00:34:37;3.70;;;1.15;;
37051;SDS011;22964;52.272;13.356;2023-04-01T00:37:05;1.27;;;0.90;;
37051;SDS011;22964;52.272;13.356;2023-04-01T00:39:33;2.63;;;1.30;;
37051;SDS011;22964;52.272;13.356;2023-04-01T00:42:00;1.50;;;1.00;;
37051;SDS011;22964;52.272;13.356;2023-04-01T00:44:28;2.35;;;1.10;;
37051;SDS011;22964;52.272;13.356;2023-04-01T00:46:57;4.47;;;1.27;;
37051;SDS011;22964;52.272;13.356;2023-04-01T00:49:29;2.78;;;1.00;;
37051;SDS011;22964;52.272;13.356;2023-04-01T00:51:58;3.08;;;1.10;;
37051;SDS011;22964;52.272;13.356;2023-04-01T00:54:26;2.80;;;1.00;;
37051;SDS011;22964;52.272;13.356;2023-04-01T00:56:54;2.80;;;1.05;;
37051;SDS011;22964;52.272;13.356;2023-04-01T00:59:25;2.08;;;1.00;;
37051;SDS011;22964;52.272;13.356;2023-04-01T01:01:54;2.50;;;1.02;;
37051;SDS011;22964;52.272;13.356;2023-04-01T01:04:28;2.17;;;1.00;;
37051;SDS011;22964;52.272;13.356;2023-04-01T01:09:38;1.80;;;1.08;;
37051;SDS011;22964;52.272;13.356;2023-04-01T01:17:30;2.53;;;1.08;;
37051;SDS011;22964;52.272;13.356;2023-04-01T01:26:01;2.60;;;1.30;;
37051;SDS011;22964;52.272;13.356;2023-04-01T01:32:25;2.80;;;1.17;;
37051;SDS011;22964;52.272;13.356;2023-04-01T01:35:20;2.25;;;1.20;;
37051;SDS011;22964;52.272;13.356;2023-04-01T01:38:14;4.20;;;1.10;;
37051;SDS011;22964;52.272;13.356;2023-04-01T01:40:48;1.55;;;1.05;;
37051;SDS011;22964;52.272;13.356;2023-04-01T01:43:30;2.15;;;1.20;;
37051;SDS011;22964;52.272;13.356;2023-04-01T01:46:04;2.90;;;1.17;;
37051;SDS011;22964;52.272;13.356;2023-04-01T01:48:37;3.42;;;1.40;;
37051;SDS011;22964;52.272;13.356;2023-04-01T01:51:05;2.38;;;1.10;;
37051;SDS011;22964;52.272;13.356;2023-04-01T01:53:31;3.92;;;1.40;;
37051;SDS011;22964;52.272;13.356;2023-04-01T01:55:57;2.40;;;1.15;;
37051;SDS011;22964;52.272;13.356;2023-04-01T01:58:25;2.67;;;1.13;;
37051;SDS011;22964;52.272;13.356;2023-04-01T02:00:57;3.28;;;1.08;;
37051;SDS011;22964;52.272;13.356;2023-04-01T02:03:27;3.60;;;1.35;;
37051;SDS011;22964;52.272;13.356;2023-04-01T02:05:57;2.97;;;1.17;;
37051;SDS011;22964;52.272;13.356;2023-04-01T02:11:23;3.83;;;1.30;;
37051;SDS011;22964;52.272;13.356;2023-04-01T02:13:59;4.95;;;1.50;;
37051;SDS011;22964;52.272;13.356;2023-04-01T02:16:38;3.50;;;1.08;;
37051;SDS011;22964;52.272;13.356;2023-04-01T02:19:08;3.15;;;1.30;;
37051;SDS011;22964;52.272;13.356;2023-04-01T02:21:37;3.33;;;1.25;;
37051;SDS011;22964;52.272;13.356;2023-04-01T02:24:07;1.83;;;1.00;;
37051;SDS011;22964;52.272;13.356;2023-04-01T02:26:37;2.60;;;1.20;;
37051;SDS011;22964;52.272;13.356;2023-04-01T02:29:04;2.58;;;1.25;;
37051;SDS011;22964;52.272;13.356;2023-04-01T02:31:31;4.15;;;1.20;;
37051;SDS011;22964;52.272;13.356;2023-04-01T02:33:57;3.22;;;1.42;;
37051;SDS011;22964;52.272;13.356;2023-04-01T02:36:23;4.97;;;1.13;;
37051;SDS011;22964;52.272;13.356;2023-04-01T02:38:50;3.10;;;1.20;;
37051;SDS011;22964;52.272;13.356;2023-04-01T02:41:17;3.33;;;1.20;;
37051;SDS011;22964;52.272;13.356;2023-04-01T02:43:43;2.22;;;1.08;;
37051;SDS011;22964;52.272;13.356;2023-04-01T02:46:08;3.20;;;1.30;;
37051;SDS011;22964;52.272;13.356;2023-04-01T02:48:34;2.90;;;1.17;;
37051;SDS011;22964;52.272;13.356;2023-04-01T02:51:00;2.72;;;1.30;;
37051;SDS011;22964;52.272;13.356;2023-04-01T02:53:26;5.00;;;1.27;;
37051;SDS011;22964;52.272;13.356;2023-04-01T02:55:52;3.53;;;1.25;;
37051;SDS011;22964;52.272;13.356;2023-04-01T02:58:18;5.65;;;1.35;;
37051;SDS011;22964;52.272;13.356;2023-04-01T03:00:43;3.85;;;1.30;;
37051;SDS011;22964;52.272;13.356;2023-04-01T03:03:09;5.78;;;1.80;;
37051;SDS011;22964;52.272;13.356;2023-04-01T03:05:35;3.15;;;1.10;;
37051;SDS011;22964;52.272;13.356;2023-04-01T03:08:01;2.88;;;1.10;;
37051;SDS011;22964;52.272;13.356;2023-04-01T03:10:27;2.97;;;1.20;;
37051;SDS011;22964;52.272;13.356;2023-04-01T03:12:53;4.05;;;1.15;;
37051;SDS011;22964;52.272;13.356;2023-04-01T03:15:19;3.53;;;1.33;;
37051;SDS011;22964;52.272;13.356;2023-04-01T03:17:45;3.47;;;1.05;;
37051;SDS011;22964;52.272;13.356;2023-04-01T03:20:12;2.40;;;1.23;;
37051;SDS011;22964;52.272;13.356;2023-04-01T03:22:38;3.72;;;1.10;;
37051;SDS011;22964;52.272;13.356;2023-04-01T03:25:05;4.30;;;1.40;;
37051;SDS011;22964;52.272;13.356;2023-04-01T03:27:32;3.63;;;1.25;;
37051;SDS011;22964;52.272;13.356;2023-04-01T03:29:59;4.72;;;1.15;;
37051;SDS011;22964;52.272;13.356;2023-04-01T03:32:26;5.03;;;1.30;;
37051;SDS011;22964;52.272;13.356;2023-04-01T03:34:52;3.67;;;1.20;;
37051;SDS011;22964;52.272;13.356;2023-04-01T03:37:18;3.15;;;1.23;;
37051;SDS011;22964;52.272;13.356;2023-04-01T03:39:43;3.47;;;1.20;;
37051;SDS011;22964;52.272;13.356;2023-04-01T03:42:10;2.55;;;1.00;;
37051;SDS011;22964;52.272;13.356;2023-04-01T03:44:36;4.00;;;1.50;;
37051;SDS011;22964;52.272;13.356;2023-04-01T03:47:02;3.00;;;1.10;;
37051;SDS011;22964;52.272;13.356;2023-04-01T03:49:28;3.72;;;1.45;;
37051;SDS011;22964;52.272;13.356;2023-04-01T03:51:54;4.65;;;1.65;;
37051;SDS011;22964;52.272;13.356;2023-04-01T03:54:21;2.53;;;1.20;;
37051;SDS011;22964;52.272;13.356;2023-04-01T03:56:47;3.60;;;1.10;;
37051;SDS011;22964;52.272;13.356;2023-04-01T03:59:13;2.70;;;1.13;;
37051;SDS011;22964;52.272;13.356;2023-04-01T04:01:40;5.20;;;1.20;;
37051;SDS011;22964;52.272;13.356;2023-04-01T04:04:06;3.88;;;1.48;;
37051;SDS011;22964;52.272;13.356;2023-04-01T04:06:32;1.88;;;0.90;;
37051;SDS011;22964;52.272;13.356;2023-04-01T04:08:58;2.92;;;1.42;;
37051;SDS011;22964;52.272;13.356;2023-04-01T04:11:26;4.35;;;1.23;;
37051;SDS011;22964;52.272;13.356;2023-04-01T04:13:52;2.50;;;1.25;;
37051;SDS011;22964;52.272;13.356;2023-04-01T04:16:18;4.70;;;1.10;;
37051;SDS011;22964;52.272;13.356;2023-04-01T04:21:16;4.40;;;1.15;;
37051;SDS011;22964;52.272;13.356;2023-04-01T04:23:42;4.20;;;1.25;;
37051;SDS011;22964;52.272;13.356;2023-04-01T04:26:12;2.92;;;1.20;;
37051;SDS011;22964;52.272;13.356;2023-04-01T04:28:41;2.92;;;1.20;;
37051;SDS011;22964;52.272;13.356;2023-04-01T04:31:07;3.83;;;1.08;;
37051;SDS011;22964;52.272;13.356;2023-04-01T04:33:35;3.28;;;1.20;;
37051;SDS011;22964;52.272;13.356;2023-04-01T04:36:02;3.08;;;1.20;;
37051;SDS011;22964;52.272;13.356;2023-04-01T04:38:29;3.17;;;1.30;;
37051;SDS011;22964;52.272;13.356;2023-04-01T04:40:55;3.42;;;1.27;;
37051;SDS011;22964;52.272;13.356;2023-04-01T04:43:21;3.38;;;1.20;;
37051;SDS011;22964;52.272;13.356;2023-04-01T04:45:47;2.80;;;1.20;;
37051;SDS011;22964;52.272;13.356;2023-04-01T04:48:14;3.33;;;1.27;;
37051;SDS011;22964;52.272;13.356;2023-04-01T04:50:45;2.15;;;1.00;;
37051;SDS011;22964;52.272;13.356;2023-04-01T04:53:12;3.92;;;1.30;;
37051;SDS011;22964;52.272;13.356;2023-04-01T04:55:48;2.72;;;1.10;;
37051;SDS011;22964;52.272;13.356;2023-04-01T04:58:32;2.85;;;1.10;;
37051;SDS011;22964;52.272;13.356;2023-04-01T05:01:05;2.33;;;1.00;;
37051;SDS011;22964;52.272;13.356;2023-04-01T05:03:36;3.53;;;1.13;;
37051;SDS011;22964;52.272;13.356;2023-04-01T05:06:04;5.57;;;1.20;;
37051;SDS011;22964;52.272;13.356;2023-04-01T05:08:32;2.83;;;1.13;;
37051;SDS011;22964;52.272;13.356;2023-04-01T05:10:58;4.70;;;1.27;;
37051;SDS011;22964;52.272;13.356;2023-04-01T05:13:24;4.15;;;1.20;;
37051;SDS011;22964;52.272;13.356;2023-04-01T05:15:50;2.63;;;1.27;;
37051;SDS011;22964;52.272;13.356;2023-04-01T05:18:16;1.92;;;1.00;;
37051;SDS011;22964;52.272;13.356;2023-04-01T05:20:46;2.60;;;1.17;;
37051;SDS011;22964;52.272;13.356;2023-04-01T05:23:13;3.30;;;1.10;;
37051;SDS011;22964;52.272;13.356;2023-04-01T05:25:39;3.58;;;1.20;;
37051;SDS011;22964;52.272;13.356;2023-04-01T05:28:05;2.92;;;1.02;;
37051;SDS011;22964;52.272;13.356;2023-04-01T05:30:31;2.50;;;0.90;;
37051;SDS011;22964;52.272;13.356;2023-04-01T05:33:03;5.37;;;1.00;;
37051;SDS011;22964;52.272;13.356;2023-04-01T05:35:28;2.38;;;0.90;;
37051;SDS011;22964;52.272;13.356;2023-04-01T05:37:54;5.22;;;1.30;;
37051;SDS011;22964;52.272;13.356;2023-04-01T05:40:20;4.47;;;1.40;;
37051;SDS011;22964;52.272;13.356;2023-04-01T05:42:46;4.05;;;1.20;;
37051;SDS011;22964;52.272;13.356;2023-04-01T05:45:13;3.30;;;1.00;;
37051;SDS011;22964;52.272;13.356;2023-04-01T05:47:59;2.83;;;1.30;;
37051;SDS011;22964;52.272;13.356;2023-04-01T05:50:27;4.57;;;1.20;;
37051;SDS011;22964;52.272;13.356;2023-04-01T05:52:52;3.35;;;1.30;;
37051;SDS011;22964;52.272;13.356;2023-04-01T05:55:18;2.75;;;1.20;;
37051;SDS011;22964;52.272;13.356;2023-04-01T05:57:45;2.10;;;1.00;;
37051;SDS011;22964;52.272;13.356;2023-04-01T06:00:12;3.90;;;1.20;;
37051;SDS011;22964;52.272;13.356;2023-04-01T06:02:39;3.78;;;1.30;;
37051;SDS011;22964;52.272;13.356;2023-04-01T06:10:19;3.90;;;1.13;;
37051;SDS011;22964;52.272;13.356;2023-04-01T06:12:52;2.95;;;1.48;;
37051;SDS011;22964;52.272;13.356;2023-04-01T06:24:02;5.10;;;1.55;;
37051;SDS011;22964;52.272;13.356;2023-04-01T06:37:22;3.20;;;1.45;;
37051;SDS011;22964;52.272;13.356;2023-04-01T06:45:57;5.95;;;1.77;;
37051;SDS011;22964;52.272;13.356;2023-04-01T06:49:44;5.07;;;1.80;;
37051;SDS011;22964;52.272;13.356;2023-04-01T06:56:10;3.58;;;1.40;;
37051;SDS011;22964;52.272;13.356;2023-04-01T06:58:58;3.17;;;1.15;;
37051;SDS011;22964;52.272;13.356;2023-04-01T07:01:45;4.57;;;1.80;;
37051;SDS011;22964;52.272;13.356;2023-04-01T07:04:37;4.45;;;1.52;;
37051;SDS011;22964;52.272;13.356;2023-04-01T07:07:05;4.65;;;1.75;;
37051;SDS011;22964;52.272;13.356;2023-04-01T07:09:53;3.42;;;1.58;;
37051;SDS011;22964;52.272;13.356;2023-04-01T07:15:30;2.90;;;1.40;;
37051;SDS011;22964;52.272;13.356;2023-04-01T07:18:05;4.18;;;1.30;;
37051;SDS011;22964;52.272;13.356;2023-04-01T07:23:23;3.97;;;1.30;;
37051;SDS011;22964;52.272;13.356;2023-04-01T07:26:08;3.60;;;1.33;;
37051;SDS011;22964;52.272;13.356;2023-04-01T07:29:00;4.00;;;1.40;;
37051;SDS011;22964;52.272;13.356;2023-04-01T07:31:55;3.03;;;1.20;;
37051;SDS011;22964;52.272;13.356;2023-04-01T07:34:26;2.80;;;1.10;;
37051;SDS011;22964;52.272;13.356;2023-04-01T07:36:58;2.28;;;1.20;;
37051;SDS011;22964;52.272;13.356;2023-04-01T07:39:37;3.40;;;1.35;;
37051;SDS011;22964;52.272;13.356;2023-04-01T07:54:28;3.20;;;1.30;;
37051;SDS011;22964;52.272;13.356;2023-04-01T07:56:45;2.78;;;1.25;;
37051;SDS011;22964;52.272;13.356;2023-04-01T07:59:58;3.88;;;1.17;;
37051;SDS011;22964;52.272;13.356;2023-04-01T08:05:53;2.08;;;1.20;;
37051;SDS011;22964;52.272;13.356;2023-04-01T08:08:32;1.77;;;1.00;;
37051;SDS011;22964;52.272;13.356;2023-04-01T08:11:54;2.35;;;1.30;;
37051;SDS011;22964;52.272;13.356;2023-04-01T08:20:50;3.22;;;1.30;;
37051;SDS011;22964;52.272;13.356;2023-04-01T08:23:19;3.08;;;1.40;;
37051;SDS011;22964;52.272;13.356;2023-04-01T08:25:53;2.87;;;1.30;;
37051;SDS011;22964;52.272;13.356;2023-04-01T08:31:43;3.28;;;1.30;;
37051;SDS011;22964;52.272;13.356;2023-04-01T08:34:33;3.70;;;1.50;;
37051;SDS011;22964;52.272;13.356;2023-04-01T08:37:08;4.75;;;1.10;;
37051;SDS011;22964;52.272;13.356;2023-04-01T08:39:42;4.25;;;1.20;;
37051;SDS011;22964;52.272;13.356;2023-04-01T09:03:07;2.10;;;1.33;;
37051;SDS011;22964;52.272;13.356;2023-04-01T09:16:24;3.55;;;1.10;;
37051;SDS011;22964;52.272;13.356;2023-04-01T09:19:21;3.33;;;1.30;;
37051;SDS011;22964;52.272;13.356;2023-04-01T09:22:08;2.58;;;1.10;;
37051;SDS011;22964;52.272;13.356;2023-04-01T09:27:29;3.22;;;1.30;;
37051;SDS011;22964;52.272;13.356;2023-04-01T09:37:59;6.88;;;3.38;;
37051;SDS011;22964;52.272;13.356;2023-04-01T09:40:58;6.97;;;3.60;;
37051;SDS011;22964;52.272;13.356;2023-04-01T09:49:36;3.42;;;1.30;;
37051;SDS011;22964;52.272;13.356;2023-04-01T10:04:17;1.58;;;1.10;;
37051;SDS011;22964;52.272;13.356;2023-04-01T10:18:01;1.58;;;0.90;;
37051;SDS011;22964;52.272;13.356;2023-04-01T10:26:50;2.47;;;1.20;;
37051;SDS011;22964;52.272;13.356;2023-04-01T10:40:35;16.30;;;5.10;;
37051;SDS011;22964;52.272;13.356;2023-04-01T11:08:11;2.50;;;1.80;;
37051;SDS011;22964;52.272;13.356;2023-04-01T11:19:53;2.90;;;2.20;;
37051;SDS011;22964;52.272;13.356;2023-04-01T11:31:47;3.28;;;2.33;;
37051;SDS011;22964;52.272;13.356;2023-04-01T11:37:22;2.50;;;2.10;;
37051;SDS011;22964;52.272;13.356;2023-04-01T11:47:27;3.03;;;2.60;;
37051;SDS011;22964;52.272;13.356;2023-04-01T11:50:10;2.97;;;2.20;;
37051;SDS011;22964;52.272;13.356;2023-04-01T11:55:38;2.30;;;2.00;;
37051;SDS011;22964;52.272;13.356;2023-04-01T12:15:01;2.35;;;1.98;;
37051;SDS011;22964;52.272;13.356;2023-04-01T12:20:39;1.95;;;1.60;;
37051;SDS011;22964;52.272;13.356;2023-04-01T12:23:49;1.50;;;1.30;;
37051;SDS011;22964;52.272;13.356;2023-04-01T12:43:07;2.20;;;1.70;;
37051;SDS011;22964;52.272;13.356;2023-04-01T12:45:55;3.22;;;1.60;;
37051;SDS011;22964;52.272;13.356;2023-04-01T13:17:03;3.72;;;3.03;;
37051;SDS011;22964;52.272;13.356;2023-04-01T13:20:23;3.58;;;2.70;;
37051;SDS011;22964;52.272;13.356;2023-04-01T13:23:09;4.07;;;2.60;;
37051;SDS011;22964;52.272;13.356;2023-04-01T13:30:56;3.45;;;2.30;;
37051;SDS011;22964;52.272;13.356;2023-04-01T13:42:26;3.15;;;2.53;;
37051;SDS011;22964;52.272;13.356;2023-04-01T13:44:56;3.38;;;2.60;;
37051;SDS011;22964;52.272;13.356;2023-04-01T13:56:37;3.08;;;2.10;;
37051;SDS011;22964;52.272;13.356;2023-04-01T14:10:43;3.72;;;2.75;;
37051;SDS011;22964;52.272;13.356;2023-04-01T14:21:43;4.53;;;3.20;;
37051;SDS011;22964;52.272;13.356;2023-04-01T14:27:17;3.55;;;2.70;;
37051;SDS011;22964;52.272;13.356;2023-04-01T14:38:27;3.40;;;2.50;;
37051;SDS011;22964;52.272;13.356;2023-04-01T14:43:47;3.22;;;2.42;;
37051;SDS011;22964;52.272;13.356;2023-04-01T14:46:44;4.00;;;2.53;;
37051;SDS011;22964;52.272;13.356;2023-04-01T14:49:36;2.90;;;2.38;;
37051;SDS011;22964;52.272;13.356;2023-04-01T14:52:17;4.38;;;2.70;;
37051;SDS011;22964;52.272;13.356;2023-04-01T14:54:55;3.25;;;2.40;;
37051;SDS011;22964;52.272;13.356;2023-04-01T14:57:27;4.13;;;2.40;;
37051;SDS011;22964;52.272;13.356;2023-04-01T15:00:09;3.38;;;2.70;;
37051;SDS011;22964;52.272;13.356;2023-04-01T15:02:45;4.55;;;2.88;;
37051;SDS011;22964;52.272;13.356;2023-04-01T15:08:26;3.95;;;3.03;;
37051;SDS011;22964;52.272;13.356;2023-04-01T15:13:43;4.00;;;2.95;;
37051;SDS011;22964;52.272;13.356;2023-04-01T15:27:22;3.70;;;2.35;;
37051;SDS011;22964;52.272;13.356;2023-04-01T15:30:02;3.80;;;2.10;;
37051;SDS011;22964;52.272;13.356;2023-04-01T15:33:43;2.58;;;1.80;;
37051;SDS011;22964;52.272;13.356;2023-04-01T15:38:30;1.92;;;1.35;;
37051;SDS011;22964;52.272;13.356;2023-04-01T15:41:07;2.75;;;1.40;;
37051;SDS011;22964;52.272;13.356;2023-04-01T15:46:24;3.15;;;1.40;;
37051;SDS011;22964;52.272;13.356;2023-04-01T15:49:12;2.03;;;1.42;;
37051;SDS011;22964;52.272;13.356;2023-04-01T15:52:06;1.73;;;1.23;;
37051;SDS011;22964;52.272;13.356;2023-04-01T16:00:25;1.60;;;1.20;;
37051;SDS011;22964;52.272;13.356;2023-04-01T16:03:06;1.65;;;1.20;;
37051;SDS011;22964;52.272;13.356;2023-04-01T16:11:02;3.17;;;1.45;;
37051;SDS011;22964;52.272;13.356;2023-04-01T16:19:24;2.90;;;1.73;;
37051;SDS011;22964;52.272;13.356;2023-04-01T16:22:05;2.50;;;1.50;;
37051;SDS011;22964;52.272;13.356;2023-04-01T16:30:00;2.88;;;1.50;;
37051;SDS011;22964;52.272;13.356;2023-04-01T16:32:50;2.42;;;1.42;;
37051;SDS011;22964;52.272;13.356;2023-04-01T16:35:46;2.80;;;1.60;;
37051;SDS011;22964;52.272;13.356;2023-04-01T16:38:23;3.17;;;1.90;;
37051;SDS011;22964;52.272;13.356;2023-04-01T16:43:42;2.25;;;1.60;;
37051;SDS011;22964;52.272;13.356;2023-04-01T16:52:12;2.83;;;1.80;;
37051;SDS011;22964;52.272;13.356;2023-04-01T16:54:48;2.60;;;1.80;;
37051;SDS011;22964;52.272;13.356;2023-04-01T16:57:21;2.55;;;1.80;;
37051;SDS011;22964;52.272;13.356;2023-04-01T17:00:26;3.17;;;2.10;;
37051;SDS011;22964;52.272;13.356;2023-04-01T17:02:56;3.90;;;2.17;;
37051;SDS011;22964;52.272;13.356;2023-04-01T17:05:35;3.67;;;2.10;;
37051;SDS011;22964;52.272;13.356;2023-04-01T17:08:06;4.32;;;1.95;;
37051;SDS011;22964;52.272;13.356;2023-04-01T17:21:43;4.60;;;2.00;;
37051;SDS011;22964;52.272;13.356;2023-04-01T17:35:05;3.97;;;2.30;;
37051;SDS011;22964;52.272;13.356;2023-04-01T17:48:23;3.30;;;2.20;;
37051;SDS011;22964;52.272;13.356;2023-04-01T18:13:05;4.03;;;2.50;;
37051;SDS011;22964;52.272;13.356;2023-04-01T18:23:51;4.18;;;2.63;;
37051;SDS011;22964;52.272;13.356;2023-04-01T18:29:03;5.50;;;2.75;;
37051;SDS011;22964;52.272;13.356;2023-04-01T18:31:40;3.65;;;2.58;;
37051;SDS011;22964;52.272;13.356;2023-04-01T18:44:59;3.00;;;2.40;;
37051;SDS011;22964;52.272;13.356;2023-04-01T18:47:54;3.13;;;2.35;;
37051;SDS011;22964;52.272;13.356;2023-04-01T18:50:33;3.38;;;2.60;;
37051;SDS011;22964;52.272;13.356;2023-04-01T18:56:04;3.88;;;2.60;;
37051;SDS011;22964;52.272;13.356;2023-04-01T18:58:48;5.65;;;2.90;;
37051;SDS011;22964;52.272;13.356;2023-04-01T19:01:36;4.93;;;2.70;;
37051;SDS011;22964;52.272;13.356;2023-04-01T19:04:38;4.03;;;2.60;;
37051;SDS011;22964;52.272;13.356;2023-04-01T19:07:02;4.32;;;2.40;;
37051;SDS011;22964;52.272;13.356;2023-04-01T19:09:51;4.35;;;2.67;;
37051;SDS011;22964;52.272;13.356;2023-04-01T19:26:00;5.35;;;3.10;;
37051;SDS011;22964;52.272;13.356;2023-04-01T19:31:43;5.22;;;2.92;;
37051;SDS011;22964;52.272;13.356;2023-04-01T19:39:31;4.53;;;2.58;;
37051;SDS011;22964;52.272;13.356;2023-04-01T19:45:23;5.18;;;3.00;;
37051;SDS011;22964;52.272;13.356;2023-04-01T19:48:14;4.18;;;2.50;;
37051;SDS011;22964;52.272;13.356;2023-04-01T19:54:30;5.00;;;2.80;;
37051;SDS011;22964;52.272;13.356;2023-04-01T19:59:46;4.72;;;2.92;;
37051;SDS011;22964;52.272;13.356;2023-04-01T20:02:30;3.85;;;2.70;;
37051;SDS011;22964;52.272;13.356;2023-04-01T20:05:03;4.15;;;2.85;;
37051;SDS011;22964;52.272;13.356;2023-04-01T20:07:51;4.15;;;2.95;;
37051;SDS011;22964;52.272;13.356;2023-04-01T20:10:25;4.88;;;3.50;;
37051;SDS011;22964;52.272;13.356;2023-04-01T20:13:25;4.47;;;3.10;;
37051;SDS011;22964;52.272;13.356;2023-04-01T20:16:11;5.10;;;3.15;;
37051;SDS011;22964;52.272;13.356;2023-04-01T20:18:50;5.93;;;3.38;;
37051;SDS011;22964;52.272;13.356;2023-04-01T20:21:37;5.85;;;3.30;;
37051;SDS011;22964;52.272;13.356;2023-04-01T20:24:16;5.65;;;3.58;;
37051;SDS011;22964;52.272;13.356;2023-04-01T20:26:58;5.07;;;3.60;;
37051;SDS011;22964;52.272;13.356;2023-04-01T20:35:18;4.72;;;3.47;;
37051;SDS011;22964;52.272;13.356;2023-04-01T20:49:33;6.65;;;4.05;;
37051;SDS011;22964;52.272;13.356;2023-04-01T20:57:32;6.68;;;4.40;;
37051;SDS011;22964;52.272;13.356;2023-04-01T21:00:39;7.80;;;4.57;;
37051;SDS011;22964;52.272;13.356;2023-04-01T21:03:29;8.52;;;4.80;;
37051;SDS011;22964;52.272;13.356;2023-04-01T21:20:13;9.07;;;4.85;;
37051;SDS011;22964;52.272;13.356;2023-04-01T21:22:49;9.18;;;4.88;;
37051;SDS011;22964;52.272;13.356;2023-04-01T21:40:02;8.32;;;4.53;;
37051;SDS011;22964;52.272;13.356;2023-04-01T21:43:00;8.00;;;4.55;;
37051;SDS011;22964;52.272;13.356;2023-04-01T21:46:07;7.15;;;4.10;;
37051;SDS011;22964;52.272;13.356;2023-04-01T22:05:34;7.82;;;4.50;;
37051;SDS011;22964;52.272;13.356;2023-04-01T22:10:45;9.45;;;4.90;;
37051;SDS011;22964;52.272;13.356;2023-04-01T22:21:26;8.43;;;4.80;;
37051;SDS011;22964;52.272;13.356;2023-04-01T22:24:15;9.30;;;4.97;;
37051;SDS011;22964;52.272;13.356;2023-04-01T22:26:56;8.15;;;4.63;;
37051;SDS011;22964;52.272;13.356;2023-04-01T22:29:34;9.25;;;4.95;;
37051;SDS011;22964;52.272;13.356;2023-04-01T22:32:29;9.43;;;4.68;;
37051;SDS011;22964;52.272;13.356;2023-04-01T22:42:00;6.88;;;4.20;;
37051;SDS011;22964;52.272;13.356;2023-04-01T22:50:03;8.57;;;4.25;;
37051;SDS011;22964;52.272;13.356;2023-04-01T22:52:41;6.28;;;3.95;;
37051;SDS011;22964;52.272;13.356;2023-04-01T22:55:17;7.10;;;3.80;;
37051;SDS011;22964;52.272;13.356;2023-04-01T22:57:58;8.32;;;3.97;;
37051;SDS011;22964;52.272;13.356;2023-04-01T23:00:36;8.88;;;3.60;;
37051;SDS011;22964;52.272;13.356;2023-04-01T23:03:25;7.57;;;3.58;;
37051;SDS011;22964;52.272;13.356;2023-04-01T23:06:01;6.45;;;3.75;;
37051;SDS011;22964;52.272;13.356;2023-04-01T23:11:07;5.47;;;3.55;;
37051;SDS011;22964;52.272;13.356;2023-04-01T23:13:38;7.32;;;3.80;;
37051;SDS011;22964;52.272;13.356;2023-04-01T23:16:09;6.40;;;3.88;;
37051;SDS011;22964;52.272;13.356;2023-04-01T23:18:46;7.50;;;3.95;;
37051;SDS011;22964;52.272;13.356;2023-04-01T23:29:28;7.47;;;4.10;;
37051;SDS011;22964;52.272;13.356;2023-04-01T23:32:01;6.68;;;3.65;;
37051;SDS011;22964;52.272;13.356;2023-04-01T23:34:29;8.63;;;3.75;;
37051;SDS011;22964;52.272;13.356;2023-04-01T23:37:12;7.95;;;3.83;;
37051;SDS011;22964;52.272;13.356;2023-04-01T23:39:54;8.73;;;3.80;;
37051;SDS011;22964;52.272;13.356;2023-04-01T23:44:53;7.43;;;3.90;;
37051;SDS011;22964;52.272;13.356;2023-04-01T23:47:23;8.18;;;4.25;;
37051;SDS011;22964;52.272;13.356;2023-04-01T23:50:04;6.82;;;3.63;;
37051;SDS011;22964;52.272;13.356;2023-04-01T23:52:36;6.03;;;3.70;;
37051;SDS011;22964;52.272;13.356;2023-04-01T23:55:14;8.60;;;3.92;;
37051;SDS011;22964;52.272;13.356;2023-04-01T23:58:00;5.85;;;3.70;;
